sensor_id;sensor_type;location;lat;lon;timestamp;P1;durP1;ratioP1;P2;durP2;ratioP2
63110;SDS011;49201;53.426;10.300;2022-07-23T00:02:23;3.97;;;1.73;;
63110;SDS011;49201;53.426;10.300;2022-07-23T00:04:49;5.23;;;2.00;;
63110;SDS011;49201;53.426;10.300;2022-07-23T00:07:14;4.20;;;1.67;;
63110;SDS011;49201;53.426;10.300;2022-07-23T00:09:40;2.77;;;1.60;;
63110;SDS011;49201;53.426;10.300;2022-07-23T00:12:05;6.37;;;1.63;;
63110;SDS011;49201;53.426;10.300;2022-07-23T00:14:31;4.27;;;1.70;;
63110;SDS011;49201;53.426;10.300;2022-07-23T00:16:56;2.27;;;1.57;;
63110;SDS011;49201;53.426;10.300;2022-07-23T00:19:22;3.83;;;1.60;;
63110;SDS011;49201;53.426;10.300;2022-07-23T00:21:47;6.30;;;1.90;;
63110;SDS011;49201;53.426;10.300;2022-07-23T00:24:13;2.53;;;1.57;;
63110;SDS011;49201;53.426;10.300;2022-07-23T00:26:38;3.27;;;1.50;;
63110;SDS011;49201;53.426;10.300;2022-07-23T00:29:04;4.07;;;1.60;;
63110;SDS011;49201;53.426;10.300;2022-07-23T00:31:29;6.53;;;1.70;;
63110;SDS011;49201;53.426;10.300;2022-07-23T00:33:55;6.00;;;1.63;;
63110;SDS011;49201;53.426;10.300;2022-07-23T00:36:22;5.03;;;1.77;;
63110;SDS011;49201;53.426;10.300;2022-07-23T00:38:49;3.60;;;1.70;;
63110;SDS011;49201;53.426;10.300;2022-07-23T00:41:14;4.00;;;1.67;;
63110;SDS011;49201;53.426;10.300;2022-07-23T00:43:40;2.60;;;1.40;;
63110;SDS011;49201;53.426;10.300;2022-07-23T00:46:06;4.13;;;1.53;;
63110;SDS011;49201;53.426;10.300;2022-07-23T00:48:32;3.50;;;1.40;;
63110;SDS011;49201;53.426;10.300;2022-07-23T00:50:57;5.17;;;1.73;;
63110;SDS011;49201;53.426;10.300;2022-07-23T00:53:24;5.13;;;1.50;;
63110;SDS011;49201;53.426;10.300;2022-07-23T00:55:49;5.57;;;1.73;;
63110;SDS011;49201;53.426;10.300;2022-07-23T00:58:15;2.00;;;1.23;;
63110;SDS011;49201;53.426;10.300;2022-07-23T01:00:42;3.53;;;1.80;;
63110;SDS011;49201;53.426;10.300;2022-07-23T01:03:07;4.80;;;1.50;;
63110;SDS011;49201;53.426;10.300;2022-07-23T01:05:33;5.30;;;1.87;;
63110;SDS011;49201;53.426;10.300;2022-07-23T01:07:59;5.00;;;1.43;;
63110;SDS011;49201;53.426;10.300;2022-07-23T01:10:25;4.93;;;1.43;;
63110;SDS011;49201;53.426;10.300;2022-07-23T01:12:58;2.70;;;1.67;;
63110;SDS011;49201;53.426;10.300;2022-07-23T01:15:25;3.93;;;1.60;;
63110;SDS011;49201;53.426;10.300;2022-07-23T01:17:51;2.87;;;1.27;;
63110;SDS011;49201;53.426;10.300;2022-07-23T01:20:17;2.73;;;1.33;;
63110;SDS011;49201;53.426;10.300;2022-07-23T01:22:42;3.47;;;1.40;;
63110;SDS011;49201;53.426;10.300;2022-07-23T01:25:09;5.53;;;1.50;;
63110;SDS011;49201;53.426;10.300;2022-07-23T01:27:36;4.67;;;1.63;;
63110;SDS011;49201;53.426;10.300;2022-07-23T01:30:03;4.90;;;1.50;;
63110;SDS011;49201;53.426;10.300;2022-07-23T01:32:29;2.57;;;1.30;;
63110;SDS011;49201;53.426;10.300;2022-07-23T01:34:54;4.80;;;1.70;;
63110;SDS011;49201;53.426;10.300;2022-07-23T01:37:20;7.30;;;1.70;;
63110;SDS011;49201;53.426;10.300;2022-07-23T01:39:46;3.47;;;1.33;;
63110;SDS011;49201;53.426;10.300;2022-07-23T01:42:12;5.90;;;1.73;;
63110;SDS011;49201;53.426;10.300;2022-07-23T01:44:38;6.03;;;1.73;;
63110;SDS011;49201;53.426;10.300;2022-07-23T01:47:05;4.17;;;1.60;;
63110;SDS011;49201;53.426;10.300;2022-07-23T01:49:31;2.17;;;1.40;;
63110;SDS011;49201;53.426;10.300;2022-07-23T01:52:14;3.33;;;1.80;;
63110;SDS011;49201;53.426;10.300;2022-07-23T01:54:44;2.87;;;1.87;;
63110;SDS011;49201;53.426;10.300;2022-07-23T01:57:10;4.13;;;1.70;;
63110;SDS011;49201;53.426;10.300;2022-07-23T01:59:36;4.33;;;1.70;;
63110;SDS011;49201;53.426;10.300;2022-07-23T02:02:02;3.73;;;1.53;;
63110;SDS011;49201;53.426;10.300;2022-07-23T02:04:30;5.67;;;1.73;;
63110;SDS011;49201;53.426;10.300;2022-07-23T02:06:55;3.63;;;2.03;;
63110;SDS011;49201;53.426;10.300;2022-07-23T02:09:21;5.40;;;2.10;;
63110;SDS011;49201;53.426;10.300;2022-07-23T02:11:47;3.60;;;1.70;;
63110;SDS011;49201;53.426;10.300;2022-07-23T02:14:13;4.97;;;2.00;;
63110;SDS011;49201;53.426;10.300;2022-07-23T02:16:39;2.97;;;1.83;;
63110;SDS011;49201;53.426;10.300;2022-07-23T02:19:04;5.07;;;1.93;;
63110;SDS011;49201;53.426;10.300;2022-07-23T02:21:30;4.27;;;1.63;;
63110;SDS011;49201;53.426;10.300;2022-07-23T02:23:55;3.03;;;1.40;;
63110;SDS011;49201;53.426;10.300;2022-07-23T02:26:21;5.80;;;1.90;;
63110;SDS011;49201;53.426;10.300;2022-07-23T02:28:49;2.57;;;1.80;;
63110;SDS011;49201;53.426;10.300;2022-07-23T02:31:15;4.97;;;1.93;;
63110;SDS011;49201;53.426;10.300;2022-07-23T02:33:41;4.90;;;2.00;;
63110;SDS011;49201;53.426;10.300;2022-07-23T02:36:06;4.93;;;2.23;;
63110;SDS011;49201;53.426;10.300;2022-07-23T02:38:32;4.93;;;2.00;;
63110;SDS011;49201;53.426;10.300;2022-07-23T02:40:58;6.57;;;2.10;;
63110;SDS011;49201;53.426;10.300;2022-07-23T02:43:23;6.03;;;1.90;;
63110;SDS011;49201;53.426;10.300;2022-07-23T02:45:49;3.33;;;1.90;;
63110;SDS011;49201;53.426;10.300;2022-07-23T02:48:14;3.87;;;2.03;;
63110;SDS011;49201;53.426;10.300;2022-07-23T02:50:42;4.37;;;1.90;;
63110;SDS011;49201;53.426;10.300;2022-07-23T02:53:09;2.23;;;2.03;;
63110;SDS011;49201;53.426;10.300;2022-07-23T02:55:35;6.87;;;2.23;;
63110;SDS011;49201;53.426;10.300;2022-07-23T02:58:01;7.47;;;2.10;;
63110;SDS011;49201;53.426;10.300;2022-07-23T03:00:27;4.03;;;1.90;;
63110;SDS011;49201;53.426;10.300;2022-07-23T03:02:53;3.60;;;2.13;;
63110;SDS011;49201;53.426;10.300;2022-07-23T03:05:18;3.73;;;1.93;;
63110;SDS011;49201;53.426;10.300;2022-07-23T03:07:44;5.90;;;2.13;;
63110;SDS011;49201;53.426;10.300;2022-07-23T03:10:09;5.03;;;2.00;;
63110;SDS011;49201;53.426;10.300;2022-07-23T03:12:35;7.27;;;2.57;;
63110;SDS011;49201;53.426;10.300;2022-07-23T03:15:01;4.90;;;2.27;;
63110;SDS011;49201;53.426;10.300;2022-07-23T03:17:27;9.40;;;2.67;;
63110;SDS011;49201;53.426;10.300;2022-07-23T03:19:53;5.10;;;2.60;;
63110;SDS011;49201;53.426;10.300;2022-07-23T03:22:18;6.63;;;2.53;;
63110;SDS011;49201;53.426;10.300;2022-07-23T03:24:44;4.70;;;2.43;;
63110;SDS011;49201;53.426;10.300;2022-07-23T03:27:24;2.40;;;2.20;;
63110;SDS011;49201;53.426;10.300;2022-07-23T03:29:52;7.20;;;2.67;;
63110;SDS011;49201;53.426;10.300;2022-07-23T03:32:19;4.00;;;2.40;;
63110;SDS011;49201;53.426;10.300;2022-07-23T03:34:46;6.03;;;2.73;;
63110;SDS011;49201;53.426;10.300;2022-07-23T03:37:11;6.00;;;2.83;;
63110;SDS011;49201;53.426;10.300;2022-07-23T03:39:37;3.73;;;2.37;;
63110;SDS011;49201;53.426;10.300;2022-07-23T03:42:02;7.73;;;3.33;;
63110;SDS011;49201;53.426;10.300;2022-07-23T03:44:28;7.00;;;2.73;;
63110;SDS011;49201;53.426;10.300;2022-07-23T03:46:54;6.17;;;2.87;;
63110;SDS011;49201;53.426;10.300;2022-07-23T03:49:19;7.07;;;2.60;;
63110;SDS011;49201;53.426;10.300;2022-07-23T03:51:45;4.80;;;3.20;;
63110;SDS011;49201;53.426;10.300;2022-07-23T03:54:12;5.57;;;3.23;;
63110;SDS011;49201;53.426;10.300;2022-07-23T03:56:37;4.70;;;2.87;;
63110;SDS011;49201;53.426;10.300;2022-07-23T03:59:03;6.50;;;3.00;;
63110;SDS011;49201;53.426;10.300;2022-07-23T04:01:29;5.37;;;3.13;;
63110;SDS011;49201;53.426;10.300;2022-07-23T04:03:54;3.80;;;2.90;;
63110;SDS011;49201;53.426;10.300;2022-07-23T04:06:20;7.60;;;3.30;;
63110;SDS011;49201;53.426;10.300;2022-07-23T04:08:46;6.20;;;2.77;;
63110;SDS011;49201;53.426;10.300;2022-07-23T04:11:11;6.50;;;3.23;;
63110;SDS011;49201;53.426;10.300;2022-07-23T04:13:37;5.97;;;3.33;;
63110;SDS011;49201;53.426;10.300;2022-07-23T04:16:03;7.30;;;3.47;;
63110;SDS011;49201;53.426;10.300;2022-07-23T04:18:29;5.83;;;3.53;;
63110;SDS011;49201;53.426;10.300;2022-07-23T04:21:05;4.87;;;3.47;;
63110;SDS011;49201;53.426;10.300;2022-07-23T04:23:31;4.57;;;3.40;;
63110;SDS011;49201;53.426;10.300;2022-07-23T04:25:57;5.20;;;3.70;;
63110;SDS011;49201;53.426;10.300;2022-07-23T04:28:22;5.53;;;3.37;;
63110;SDS011;49201;53.426;10.300;2022-07-23T04:30:49;6.93;;;3.17;;
63110;SDS011;49201;53.426;10.300;2022-07-23T04:33:15;4.33;;;3.13;;
63110;SDS011;49201;53.426;10.300;2022-07-23T04:35:41;5.83;;;3.10;;
63110;SDS011;49201;53.426;10.300;2022-07-23T04:38:27;8.80;;;3.87;;
63110;SDS011;49201;53.426;10.300;2022-07-23T04:40:57;7.33;;;3.87;;
63110;SDS011;49201;53.426;10.300;2022-07-23T04:43:24;7.20;;;3.83;;
63110;SDS011;49201;53.426;10.300;2022-07-23T04:45:50;8.10;;;3.60;;
63110;SDS011;49201;53.426;10.300;2022-07-23T04:48:15;5.73;;;3.50;;
63110;SDS011;49201;53.426;10.300;2022-07-23T04:50:42;6.37;;;3.97;;
63110;SDS011;49201;53.426;10.300;2022-07-23T04:53:14;6.90;;;4.03;;
63110;SDS011;49201;53.426;10.300;2022-07-23T04:55:40;8.13;;;4.50;;
63110;SDS011;49201;53.426;10.300;2022-07-23T04:58:06;8.93;;;4.10;;
63110;SDS011;49201;53.426;10.300;2022-07-23T05:00:31;6.00;;;3.90;;
63110;SDS011;49201;53.426;10.300;2022-07-23T05:02:57;6.10;;;4.07;;
63110;SDS011;49201;53.426;10.300;2022-07-23T05:05:22;7.53;;;4.00;;
63110;SDS011;49201;53.426;10.300;2022-07-23T05:07:49;8.33;;;4.40;;
63110;SDS011;49201;53.426;10.300;2022-07-23T05:10:15;6.03;;;4.13;;
63110;SDS011;49201;53.426;10.300;2022-07-23T05:12:41;8.80;;;4.40;;
63110;SDS011;49201;53.426;10.300;2022-07-23T05:15:06;6.40;;;4.60;;
63110;SDS011;49201;53.426;10.300;2022-07-23T05:17:32;11.53;;;5.13;;
63110;SDS011;49201;53.426;10.300;2022-07-23T05:19:58;8.63;;;4.73;;
63110;SDS011;49201;53.426;10.300;2022-07-23T05:22:23;7.60;;;4.47;;
63110;SDS011;49201;53.426;10.300;2022-07-23T05:24:49;7.70;;;4.70;;
63110;SDS011;49201;53.426;10.300;2022-07-23T05:27:14;10.30;;;4.70;;
63110;SDS011;49201;53.426;10.300;2022-07-23T05:29:40;5.33;;;4.80;;
63110;SDS011;49201;53.426;10.300;2022-07-23T05:32:06;6.00;;;5.03;;
63110;SDS011;49201;53.426;10.300;2022-07-23T05:34:34;7.37;;;4.57;;
63110;SDS011;49201;53.426;10.300;2022-07-23T05:36:59;8.30;;;4.63;;
63110;SDS011;49201;53.426;10.300;2022-07-23T05:39:25;8.60;;;5.00;;
63110;SDS011;49201;53.426;10.300;2022-07-23T05:41:50;7.50;;;4.33;;
63110;SDS011;49201;53.426;10.300;2022-07-23T05:44:16;8.50;;;3.90;;
63110;SDS011;49201;53.426;10.300;2022-07-23T05:46:43;6.67;;;3.73;;
63110;SDS011;49201;53.426;10.300;2022-07-23T05:49:12;7.53;;;4.40;;
63110;SDS011;49201;53.426;10.300;2022-07-23T05:51:50;7.53;;;3.63;;
63110;SDS011;49201;53.426;10.300;2022-07-23T05:54:23;5.63;;;3.33;;
63110;SDS011;49201;53.426;10.300;2022-07-23T05:56:50;5.57;;;3.60;;
63110;SDS011;49201;53.426;10.300;2022-07-23T05:59:15;6.00;;;3.37;;
63110;SDS011;49201;53.426;10.300;2022-07-23T06:01:41;7.43;;;3.77;;
63110;SDS011;49201;53.426;10.300;2022-07-23T06:04:09;7.27;;;4.13;;
63110;SDS011;49201;53.426;10.300;2022-07-23T06:06:38;9.87;;;4.07;;
63110;SDS011;49201;53.426;10.300;2022-07-23T06:09:05;4.73;;;3.67;;
63110;SDS011;49201;53.426;10.300;2022-07-23T06:11:31;8.47;;;4.03;;
63110;SDS011;49201;53.426;10.300;2022-07-23T06:13:56;6.30;;;3.50;;
63110;SDS011;49201;53.426;10.300;2022-07-23T06:16:30;5.97;;;3.77;;
63110;SDS011;49201;53.426;10.300;2022-07-23T06:18:55;5.73;;;4.00;;
63110;SDS011;49201;53.426;10.300;2022-07-23T06:21:21;7.73;;;3.40;;
63110;SDS011;49201;53.426;10.300;2022-07-23T06:23:46;5.63;;;3.47;;
63110;SDS011;49201;53.426;10.300;2022-07-23T06:26:12;6.47;;;3.53;;
63110;SDS011;49201;53.426;10.300;2022-07-23T06:28:37;7.37;;;3.33;;
63110;SDS011;49201;53.426;10.300;2022-07-23T06:31:04;5.27;;;3.40;;
63110;SDS011;49201;53.426;10.300;2022-07-23T06:33:30;9.23;;;3.30;;
63110;SDS011;49201;53.426;10.300;2022-07-23T06:35:55;5.07;;;3.50;;
63110;SDS011;49201;53.426;10.300;2022-07-23T06:38:20;4.57;;;3.50;;
63110;SDS011;49201;53.426;10.300;2022-07-23T06:40:46;7.73;;;3.77;;
63110;SDS011;49201;53.426;10.300;2022-07-23T06:43:11;3.30;;;3.00;;
63110;SDS011;49201;53.426;10.300;2022-07-23T06:45:37;7.90;;;3.10;;
63110;SDS011;49201;53.426;10.300;2022-07-23T06:48:03;5.23;;;3.13;;
63110;SDS011;49201;53.426;10.300;2022-07-23T06:50:28;5.70;;;3.10;;
63110;SDS011;49201;53.426;10.300;2022-07-23T06:52:54;6.67;;;3.47;;
63110;SDS011;49201;53.426;10.300;2022-07-23T06:55:20;3.50;;;3.00;;
63110;SDS011;49201;53.426;10.300;2022-07-23T06:57:46;6.30;;;2.60;;
63110;SDS011;49201;53.426;10.300;2022-07-23T07:00:11;4.63;;;2.67;;
63110;SDS011;49201;53.426;10.300;2022-07-23T07:02:37;5.37;;;2.83;;
63110;SDS011;49201;53.426;10.300;2022-07-23T07:05:04;4.40;;;2.27;;
63110;SDS011;49201;53.426;10.300;2022-07-23T07:07:29;3.00;;;2.40;;
63110;SDS011;49201;53.426;10.300;2022-07-23T07:09:55;7.23;;;2.73;;
63110;SDS011;49201;53.426;10.300;2022-07-23T07:12:20;9.13;;;2.50;;
63110;SDS011;49201;53.426;10.300;2022-07-23T07:14:46;4.77;;;2.40;;
63110;SDS011;49201;53.426;10.300;2022-07-23T07:17:11;2.57;;;2.17;;
63110;SDS011;49201;53.426;10.300;2022-07-23T07:19:37;3.40;;;2.17;;
63110;SDS011;49201;53.426;10.300;2022-07-23T07:22:02;6.37;;;2.50;;
63110;SDS011;49201;53.426;10.300;2022-07-23T07:24:28;3.13;;;2.00;;
63110;SDS011;49201;53.426;10.300;2022-07-23T07:26:53;4.57;;;1.90;;
63110;SDS011;49201;53.426;10.300;2022-07-23T07:29:18;2.50;;;2.00;;
63110;SDS011;49201;53.426;10.300;2022-07-23T07:31:44;3.50;;;2.40;;
63110;SDS011;49201;53.426;10.300;2022-07-23T07:34:09;5.60;;;1.90;;
63110;SDS011;49201;53.426;10.300;2022-07-23T07:36:35;4.03;;;1.63;;
63110;SDS011;49201;53.426;10.300;2022-07-23T07:39:03;2.73;;;1.77;;
63110;SDS011;49201;53.426;10.300;2022-07-23T07:41:30;3.67;;;1.60;;
63110;SDS011;49201;53.426;10.300;2022-07-23T07:43:56;3.70;;;1.70;;
63110;SDS011;49201;53.426;10.300;2022-07-23T07:46:21;2.93;;;1.37;;
63110;SDS011;49201;53.426;10.300;2022-07-23T07:48:49;2.63;;;1.27;;
63110;SDS011;49201;53.426;10.300;2022-07-23T07:51:15;3.57;;;1.50;;
63110;SDS011;49201;53.426;10.300;2022-07-23T07:53:41;1.63;;;1.23;;
63110;SDS011;49201;53.426;10.300;2022-07-23T07:56:06;4.20;;;1.60;;
63110;SDS011;49201;53.426;10.300;2022-07-23T07:58:32;2.90;;;1.30;;
63110;SDS011;49201;53.426;10.300;2022-07-23T08:00:57;2.07;;;1.40;;
63110;SDS011;49201;53.426;10.300;2022-07-23T08:03:23;2.70;;;1.50;;
63110;SDS011;49201;53.426;10.300;2022-07-23T08:05:48;3.23;;;1.50;;
63110;SDS011;49201;53.426;10.300;2022-07-23T08:08:14;1.87;;;1.40;;
63110;SDS011;49201;53.426;10.300;2022-07-23T08:10:40;4.70;;;1.53;;
63110;SDS011;49201;53.426;10.300;2022-07-23T08:13:06;4.50;;;1.40;;
63110;SDS011;49201;53.426;10.300;2022-07-23T08:15:31;2.27;;;1.43;;
63110;SDS011;49201;53.426;10.300;2022-07-23T08:17:57;3.63;;;1.40;;
63110;SDS011;49201;53.426;10.300;2022-07-23T08:20:23;3.37;;;1.30;;
63110;SDS011;49201;53.426;10.300;2022-07-23T08:22:56;2.47;;;1.17;;
63110;SDS011;49201;53.426;10.300;2022-07-23T08:25:27;3.47;;;1.30;;
63110;SDS011;49201;53.426;10.300;2022-07-23T08:27:54;1.33;;;1.00;;
63110;SDS011;49201;53.426;10.300;2022-07-23T08:30:21;3.67;;;1.20;;
63110;SDS011;49201;53.426;10.300;2022-07-23T08:33:09;2.90;;;1.07;;
63110;SDS011;49201;53.426;10.300;2022-07-23T08:35:44;2.80;;;1.30;;
63110;SDS011;49201;53.426;10.300;2022-07-23T08:38:12;1.10;;;1.00;;
63110;SDS011;49201;53.426;10.300;2022-07-23T08:40:40;2.60;;;0.93;;
63110;SDS011;49201;53.426;10.300;2022-07-23T08:43:11;1.90;;;0.83;;
63110;SDS011;49201;53.426;10.300;2022-07-23T08:45:39;3.53;;;1.20;;
63110;SDS011;49201;53.426;10.300;2022-07-23T08:48:16;2.83;;;1.03;;
63110;SDS011;49201;53.426;10.300;2022-07-23T08:50:44;1.73;;;0.70;;
63110;SDS011;49201;53.426;10.300;2022-07-23T08:53:14;1.30;;;0.90;;
63110;SDS011;49201;53.426;10.300;2022-07-23T08:55:43;1.43;;;0.80;;
63110;SDS011;49201;53.426;10.300;2022-07-23T08:58:10;1.77;;;0.83;;
63110;SDS011;49201;53.426;10.300;2022-07-23T09:00:35;3.57;;;0.90;;
63110;SDS011;49201;53.426;10.300;2022-07-23T09:03:00;2.20;;;0.83;;
63110;SDS011;49201;53.426;10.300;2022-07-23T09:05:26;2.27;;;0.90;;
63110;SDS011;49201;53.426;10.300;2022-07-23T09:11:18;1.13;;;0.83;;
63110;SDS011;49201;53.426;10.300;2022-07-23T09:15:53;2.50;;;1.10;;
63110;SDS011;49201;53.426;10.300;2022-07-23T09:21:17;2.90;;;1.20;;
63110;SDS011;49201;53.426;10.300;2022-07-23T09:29:04;0.80;;;0.60;;
63110;SDS011;49201;53.426;10.300;2022-07-23T09:36:46;0.63;;;0.63;;
63110;SDS011;49201;53.426;10.300;2022-07-23T09:39:13;1.87;;;0.93;;
63110;SDS011;49201;53.426;10.300;2022-07-23T09:41:43;1.83;;;0.80;;
63110;SDS011;49201;53.426;10.300;2022-07-23T09:44:14;1.30;;;0.80;;
63110;SDS011;49201;53.426;10.300;2022-07-23T09:46:42;2.03;;;0.90;;
63110;SDS011;49201;53.426;10.300;2022-07-23T09:51:54;1.57;;;1.00;;
63110;SDS011;49201;53.426;10.300;2022-07-23T09:56:53;2.90;;;0.90;;
63110;SDS011;49201;53.426;10.300;2022-07-23T09:59:42;2.37;;;0.77;;
63110;SDS011;49201;53.426;10.300;2022-07-23T10:02:08;1.87;;;0.77;;
63110;SDS011;49201;53.426;10.300;2022-07-23T10:05:15;1.40;;;0.80;;
63110;SDS011;49201;53.426;10.300;2022-07-23T10:08:04;2.30;;;0.70;;
63110;SDS011;49201;53.426;10.300;2022-07-23T10:10:59;0.80;;;0.70;;
63110;SDS011;49201;53.426;10.300;2022-07-23T10:13:43;1.07;;;0.67;;
63110;SDS011;49201;53.426;10.300;2022-07-23T10:16:15;0.90;;;0.70;;
63110;SDS011;49201;53.426;10.300;2022-07-23T10:18:41;2.20;;;0.43;;
63110;SDS011;49201;53.426;10.300;2022-07-23T10:21:07;1.60;;;0.70;;
63110;SDS011;49201;53.426;10.300;2022-07-23T10:23:42;1.03;;;0.60;;
63110;SDS011;49201;53.426;10.300;2022-07-23T10:32:17;1.40;;;0.50;;
63110;SDS011;49201;53.426;10.300;2022-07-23T10:37:47;1.80;;;0.67;;
63110;SDS011;49201;53.426;10.300;2022-07-23T10:40:17;2.00;;;0.73;;
63110;SDS011;49201;53.426;10.300;2022-07-23T10:42:44;0.90;;;0.60;;
63110;SDS011;49201;53.426;10.300;2022-07-23T10:47:50;0.70;;;0.70;;
63110;SDS011;49201;53.426;10.300;2022-07-23T10:50:23;1.27;;;0.77;;
63110;SDS011;49201;53.426;10.300;2022-07-23T10:55:50;0.90;;;0.80;;
63110;SDS011;49201;53.426;10.300;2022-07-23T10:58:18;1.83;;;0.80;;
63110;SDS011;49201;53.426;10.300;2022-07-23T11:00:44;1.00;;;0.63;;
63110;SDS011;49201;53.426;10.300;2022-07-23T11:03:29;1.50;;;0.67;;
63110;SDS011;49201;53.426;10.300;2022-07-23T11:06:02;0.70;;;0.70;;
63110;SDS011;49201;53.426;10.300;2022-07-23T11:08:29;1.43;;;1.10;;
63110;SDS011;49201;53.426;10.300;2022-07-23T11:10:56;3.60;;;1.80;;
63110;SDS011;49201;53.426;10.300;2022-07-23T11:16:15;1.90;;;0.87;;
63110;SDS011;49201;53.426;10.300;2022-07-23T11:34:40;0.98;;;0.80;;
63110;SDS011;49201;53.426;10.300;2022-07-23T11:37:08;1.05;;;0.95;;
63110;SDS011;49201;53.426;10.300;2022-07-23T11:39:36;1.38;;;0.65;;
63110;SDS011;49201;53.426;10.300;2022-07-23T11:42:03;0.98;;;0.90;;
63110;SDS011;49201;53.426;10.300;2022-07-23T11:44:32;3.17;;;1.30;;
63110;SDS011;49201;53.426;10.300;2022-07-23T11:47:02;1.25;;;0.90;;
63110;SDS011;49201;53.426;10.300;2022-07-23T11:49:33;1.08;;;0.77;;
63110;SDS011;49201;53.426;10.300;2022-07-23T11:52:17;1.90;;;0.90;;
63110;SDS011;49201;53.426;10.300;2022-07-23T11:54:47;0.47;;;0.40;;
63110;SDS011;49201;53.426;10.300;2022-07-23T11:57:17;0.75;;;0.50;;
63110;SDS011;49201;53.426;10.300;2022-07-23T11:59:43;1.17;;;0.80;;
63110;SDS011;49201;53.426;10.300;2022-07-23T12:02:11;1.17;;;0.52;;
63110;SDS011;49201;53.426;10.300;2022-07-23T12:04:45;4.28;;;1.00;;
63110;SDS011;49201;53.426;10.300;2022-07-23T12:09:57;1.17;;;0.47;;
63110;SDS011;49201;53.426;10.300;2022-07-23T12:12:24;1.15;;;0.50;;
63110;SDS011;49201;53.426;10.300;2022-07-23T12:14:55;0.80;;;0.60;;
63110;SDS011;49201;53.426;10.300;2022-07-23T12:17:26;1.67;;;0.60;;
63110;SDS011;49201;53.426;10.300;2022-07-23T12:19:54;1.23;;;0.50;;
63110;SDS011;49201;53.426;10.300;2022-07-23T12:22:21;0.90;;;0.60;;
63110;SDS011;49201;53.426;10.300;2022-07-23T12:24:58;0.45;;;0.40;;
63110;SDS011;49201;53.426;10.300;2022-07-23T12:27:25;1.35;;;0.70;;
63110;SDS011;49201;53.426;10.300;2022-07-23T12:29:52;0.90;;;0.47;;
63110;SDS011;49201;53.426;10.300;2022-07-23T12:34:45;2.30;;;0.43;;
63110;SDS011;49201;53.426;10.300;2022-07-23T12:37:30;0.77;;;0.50;;
63110;SDS011;49201;53.426;10.300;2022-07-23T12:39:57;0.95;;;0.70;;
63110;SDS011;49201;53.426;10.300;2022-07-23T12:42:22;0.75;;;0.52;;
63110;SDS011;49201;53.426;10.300;2022-07-23T12:45:08;1.27;;;0.40;;
63110;SDS011;49201;53.426;10.300;2022-07-23T12:50:33;1.37;;;0.87;;
63110;SDS011;49201;53.426;10.300;2022-07-23T12:53:18;4.63;;;0.70;;
63110;SDS011;49201;53.426;10.300;2022-07-23T12:55:48;2.90;;;0.88;;
63110;SDS011;49201;53.426;10.300;2022-07-23T12:58:16;1.25;;;0.80;;
63110;SDS011;49201;53.426;10.300;2022-07-23T13:05:52;2.57;;;0.93;;
63110;SDS011;49201;53.426;10.300;2022-07-23T13:08:18;3.63;;;1.03;;
63110;SDS011;49201;53.426;10.300;2022-07-23T13:10:43;2.77;;;0.93;;
63110;SDS011;49201;53.426;10.300;2022-07-23T13:13:13;2.27;;;1.30;;
63110;SDS011;49201;53.426;10.300;2022-07-23T13:15:39;2.70;;;1.40;;
63110;SDS011;49201;53.426;10.300;2022-07-23T13:18:04;4.83;;;1.80;;
63110;SDS011;49201;53.426;10.300;2022-07-23T13:20:30;4.87;;;1.20;;
63110;SDS011;49201;53.426;10.300;2022-07-23T13:22:57;3.83;;;1.50;;
63110;SDS011;49201;53.426;10.300;2022-07-23T13:25:23;1.85;;;1.13;;
63110;SDS011;49201;53.426;10.300;2022-07-23T13:27:48;3.80;;;1.40;;
63110;SDS011;49201;53.426;10.300;2022-07-23T13:30:14;2.73;;;1.50;;
63110;SDS011;49201;53.426;10.300;2022-07-23T13:32:40;6.30;;;1.30;;
63110;SDS011;49201;53.426;10.300;2022-07-23T13:35:05;2.33;;;1.10;;
63110;SDS011;49201;53.426;10.300;2022-07-23T13:37:31;2.57;;;1.20;;
63110;SDS011;49201;53.426;10.300;2022-07-23T13:39:57;3.20;;;1.30;;
63110;SDS011;49201;53.426;10.300;2022-07-23T13:42:22;2.77;;;1.40;;
63110;SDS011;49201;53.426;10.300;2022-07-23T13:44:48;2.73;;;1.40;;
63110;SDS011;49201;53.426;10.300;2022-07-23T13:47:13;1.80;;;1.00;;
63110;SDS011;49201;53.426;10.300;2022-07-23T13:49:39;2.07;;;1.00;;
63110;SDS011;49201;53.426;10.300;2022-07-23T13:52:04;3.57;;;1.43;;
63110;SDS011;49201;53.426;10.300;2022-07-23T13:54:30;3.25;;;1.30;;
63110;SDS011;49201;53.426;10.300;2022-07-23T13:56:55;2.33;;;1.00;;
63110;SDS011;49201;53.426;10.300;2022-07-23T13:59:21;3.58;;;1.67;;
63110;SDS011;49201;53.426;10.300;2022-07-23T14:01:47;1.30;;;1.00;;
63110;SDS011;49201;53.426;10.300;2022-07-23T14:04:12;5.20;;;1.75;;
63110;SDS011;49201;53.426;10.300;2022-07-23T14:06:38;2.92;;;1.08;;
63110;SDS011;49201;53.426;10.300;2022-07-23T14:09:03;2.65;;;0.85;;
63110;SDS011;49201;53.426;10.300;2022-07-23T14:11:29;1.65;;;0.70;;
63110;SDS011;49201;53.426;10.300;2022-07-23T14:13:55;3.83;;;0.90;;
63110;SDS011;49201;53.426;10.300;2022-07-23T14:16:21;3.20;;;0.90;;
63110;SDS011;49201;53.426;10.300;2022-07-23T14:18:47;6.23;;;0.90;;
63110;SDS011;49201;53.426;10.300;2022-07-23T14:21:13;2.28;;;0.90;;
63110;SDS011;49201;53.426;10.300;2022-07-23T14:23:39;2.05;;;1.20;;
63110;SDS011;49201;53.426;10.300;2022-07-23T14:26:04;3.80;;;1.03;;
63110;SDS011;49201;53.426;10.300;2022-07-23T14:28:32;1.80;;;0.87;;
63110;SDS011;49201;53.426;10.300;2022-07-23T14:30:58;2.03;;;0.80;;
63110;SDS011;49201;53.426;10.300;2022-07-23T14:33:23;2.27;;;0.80;;
63110;SDS011;49201;53.426;10.300;2022-07-23T14:35:49;2.77;;;0.63;;
63110;SDS011;49201;53.426;10.300;2022-07-23T14:38:14;1.83;;;0.82;;
63110;SDS011;49201;53.426;10.300;2022-07-23T14:40:40;1.02;;;0.80;;
63110;SDS011;49201;53.426;10.300;2022-07-23T14:43:06;1.73;;;0.73;;
63110;SDS011;49201;53.426;10.300;2022-07-23T14:45:32;1.27;;;0.80;;
63110;SDS011;49201;53.426;10.300;2022-07-23T14:47:57;1.88;;;0.70;;
63110;SDS011;49201;53.426;10.300;2022-07-23T14:50:23;1.00;;;0.57;;
63110;SDS011;49201;53.426;10.300;2022-07-23T14:52:49;1.23;;;0.73;;
63110;SDS011;49201;53.426;10.300;2022-07-23T14:55:15;1.70;;;0.70;;
63110;SDS011;49201;53.426;10.300;2022-07-23T14:57:42;1.23;;;0.80;;
63110;SDS011;49201;53.426;10.300;2022-07-23T15:00:08;2.03;;;0.70;;
63110;SDS011;49201;53.426;10.300;2022-07-23T15:02:34;3.20;;;0.87;;
63110;SDS011;49201;53.426;10.300;2022-07-23T15:05:00;3.53;;;0.90;;
63110;SDS011;49201;53.426;10.300;2022-07-23T15:07:26;1.70;;;1.10;;
63110;SDS011;49201;53.426;10.300;2022-07-23T15:09:52;2.40;;;1.10;;
63110;SDS011;49201;53.426;10.300;2022-07-23T15:12:18;2.63;;;1.17;;
63110;SDS011;49201;53.426;10.300;2022-07-23T15:14:44;1.97;;;1.00;;
63110;SDS011;49201;53.426;10.300;2022-07-23T15:17:09;1.40;;;0.70;;
63110;SDS011;49201;53.426;10.300;2022-07-23T15:19:35;2.57;;;0.80;;
63110;SDS011;49201;53.426;10.300;2022-07-23T15:22:00;2.57;;;0.80;;
63110;SDS011;49201;53.426;10.300;2022-07-23T15:24:26;2.13;;;0.87;;
63110;SDS011;49201;53.426;10.300;2022-07-23T15:26:51;2.37;;;0.73;;
63110;SDS011;49201;53.426;10.300;2022-07-23T15:29:17;2.37;;;0.80;;
63110;SDS011;49201;53.426;10.300;2022-07-23T15:31:42;3.20;;;0.70;;
63110;SDS011;49201;53.426;10.300;2022-07-23T15:34:07;1.20;;;0.73;;
63110;SDS011;49201;53.426;10.300;2022-07-23T15:36:33;2.67;;;0.93;;
63110;SDS011;49201;53.426;10.300;2022-07-23T15:38:59;1.40;;;0.90;;
63110;SDS011;49201;53.426;10.300;2022-07-23T15:41:24;2.13;;;0.80;;
63110;SDS011;49201;53.426;10.300;2022-07-23T15:43:50;2.33;;;1.33;;
63110;SDS011;49201;53.426;10.300;2022-07-23T15:46:16;3.27;;;0.90;;